createdAt,value
2022-11-21T00:01:23.308Z,99501.25
2022-11-21T00:03:50.661Z,99493.81
2022-11-21T00:06:19.300Z,99484.25
2022-11-21T00:08:47.427Z,99485.16
2022-11-21T00:11:15.103Z,99487.88
2022-11-21T00:13:42.911Z,99490.47
2022-11-21T00:16:14.956Z,99479.47
2022-11-21T00:18:42.323Z,99465.09
2022-11-21T00:21:15.749Z,99478.69
2022-11-21T00:23:48.047Z,99485.09
2022-11-21T00:26:17.335Z,99489.69
2022-11-21T00:28:45.177Z,99504.03
2022-11-21T00:31:23.575Z,99506.63
2022-11-21T00:33:50.887Z,99508.06
2022-11-21T00:36:18.110Z,99505.81
2022-11-21T00:38:45.285Z,99503.88
2022-11-21T00:41:12.544Z,99505.34
2022-11-21T00:43:39.736Z,99508.34
2022-11-21T00:46:06.836Z,99517.19
2022-11-21T00:48:34.067Z,99510.19
2022-11-21T00:51:01.450Z,99519.69
2022-11-21T00:53:29.648Z,99514.66
2022-11-21T00:55:57.555Z,99519.81
2022-11-21T00:58:24.823Z,99516.47
2022-11-21T01:00:52.401Z,99508.16
2022-11-21T01:03:19.842Z,99513.84
2022-11-21T01:05:47.036Z,99523.63
2022-11-21T01:08:14.169Z,99514.38
2022-11-21T01:10:41.453Z,99512.84
2022-11-21T01:13:08.596Z,99513.34
2022-11-21T01:15:35.732Z,99506.41
2022-11-21T01:18:03.052Z,99517.34
2022-11-21T01:20:30.150Z,99513.13
2022-11-21T01:22:57.285Z,99510.03
2022-11-21T01:25:24.522Z,99507.97
2022-11-21T01:27:51.689Z,99511.34
2022-11-21T01:30:18.896Z,99512.19
2022-11-21T01:32:50.003Z,99505.94
2022-11-21T01:35:18.364Z,99504.78
2022-11-21T01:37:50.115Z,99512.44
2022-11-21T01:40:17.548Z,99508.56
2022-11-21T01:43:12.212Z,99511.88
2022-11-21T01:46:11.078Z,99507.47
2022-11-21T01:49:08.287Z,99504.78
2022-11-21T01:52:04.809Z,99498.72
2022-11-21T01:54:44.221Z,99494.75
2022-11-21T01:57:52.618Z,99489.13
2022-11-21T02:00:27.087Z,99490.03
2022-11-21T02:03:00.738Z,99477.75
2022-11-21T02:05:35.572Z,99473.63
2022-11-21T02:08:19.993Z,99468.47
2022-11-21T02:11:18.745Z,99474.09
2022-11-21T02:13:45.951Z,99468.72
2022-11-21T02:16:13.296Z,99462.94
2022-11-21T02:18:40.574Z,99466.75
2022-11-21T02:21:48.956Z,99467.81
2022-11-21T02:25:13.123Z,99459.41
2022-11-21T02:27:40.568Z,99462.47
2022-11-21T02:30:10.990Z,99467.41
2022-11-21T02:32:47.082Z,99466.78
2022-11-21T02:35:18.586Z,99466.84
2022-11-21T02:37:54.730Z,99460.88
2022-11-21T02:40:31.931Z,99468.13
2022-11-21T02:43:16.503Z,99467.50
2022-11-21T02:45:46.473Z,99466.91
2022-11-21T02:48:14.896Z,99465.50
2022-11-21T02:50:46.154Z,99475.28
2022-11-21T02:53:18.649Z,99470.13
2022-11-21T02:55:46.714Z,99469.63
2022-11-21T02:58:14.383Z,99464.22
2022-11-21T03:00:43.455Z,99457.47
2022-11-21T03:03:11.210Z,99459.28
2022-11-21T03:05:40.051Z,99451.91
2022-11-21T03:08:07.916Z,99457.72
2022-11-21T03:10:35.080Z,99443.34
2022-11-21T03:13:02.361Z,99441.59
2022-11-21T03:15:33.433Z,99439.13
2022-11-21T03:18:02.929Z,99433.97
2022-11-21T03:20:34.827Z,99440.09
2022-11-21T03:23:02.822Z,99433.34
2022-11-21T03:25:29.931Z,99430.28
2022-11-21T03:27:57.101Z,99444.28
2022-11-21T03:30:27.113Z,99450.63
2022-11-21T03:32:58.488Z,99446.03
2022-11-21T03:35:25.802Z,99444.31
2022-11-21T03:37:53.048Z,99442.94
2022-11-21T03:40:20.316Z,99441.59
2022-11-21T03:42:47.504Z,99444.66
2022-11-21T03:45:14.829Z,99459.00
2022-11-21T03:47:42.073Z,99468.50
2022-11-21T03:50:10.647Z,99461.88
2022-11-21T03:52:37.850Z,99464.00
2022-11-21T03:55:05.767Z,99457.34
2022-11-21T03:57:33.022Z,99449.13
2022-11-21T04:00:00.205Z,99440.31
2022-11-21T04:02:27.340Z,99436.38
2022-11-21T04:04:54.493Z,99440.53
2022-11-21T04:07:21.740Z,99439.69
2022-11-21T04:09:48.911Z,99433.16
2022-11-21T04:12:16.056Z,99423.19
2022-11-21T04:14:43.191Z,99420.97
2022-11-21T04:17:10.369Z,99423.88
2022-11-21T04:19:37.505Z,99434.03
2022-11-21T04:22:04.748Z,99424.44
2022-11-21T04:24:31.911Z,99416.09
2022-11-21T04:26:59.025Z,99418.63
2022-11-21T04:29:26.207Z,99404.56
2022-11-21T04:31:53.320Z,99423.94
2022-11-21T04:34:20.491Z,99425.47
2022-11-21T04:36:47.676Z,99419.72
2022-11-21T04:39:14.896Z,99425.16
2022-11-21T04:41:42.193Z,99412.34
2022-11-21T04:44:09.429Z,99407.31
2022-11-21T04:46:36.560Z,99408.34
2022-11-21T04:49:03.810Z,99404.91
2022-11-21T04:51:30.967Z,99404.31
2022-11-21T04:53:58.127Z,99402.59
2022-11-21T04:56:25.296Z,99394.50
2022-11-21T04:58:54.132Z,99391.88
2022-11-21T05:01:21.398Z,99393.34
2022-11-21T05:03:48.695Z,99376.16
2022-11-21T05:06:15.948Z,99383.41
2022-11-21T05:08:45.610Z,99384.41
2022-11-21T05:11:33.493Z,99373.75
2022-11-21T05:14:00.651Z,99370.47
2022-11-21T05:16:27.936Z,99372.28
2022-11-21T05:18:55.174Z,99371.53
2022-11-21T05:21:22.390Z,99378.53
2022-11-21T05:23:49.622Z,99376.34
2022-11-21T05:26:16.754Z,99370.66
2022-11-21T05:28:44.023Z,99369.50
2022-11-21T05:31:11.188Z,99369.13
2022-11-21T05:33:38.303Z,99380.63
2022-11-21T05:36:05.675Z,99383.44
2022-11-21T05:38:32.849Z,99375.75
2022-11-21T05:40:59.964Z,99377.03
2022-11-21T05:43:45.569Z,99379.47
2022-11-21T05:46:16.349Z,99382.44
2022-11-21T05:48:43.779Z,99393.78
2022-11-21T05:51:11.615Z,99385.13
2022-11-21T05:53:38.999Z,99393.22
2022-11-21T05:56:11.052Z,99389.34
2022-11-21T05:58:38.715Z,99405.28
2022-11-21T06:01:08.464Z,99413.25
2022-11-21T06:03:40.848Z,99415.06
2022-11-21T06:06:13.019Z,99418.38
2022-11-21T06:08:45.670Z,99418.88
2022-11-21T06:11:17.129Z,99427.53
2022-11-21T06:13:44.660Z,99430.22
2022-11-21T06:16:19.549Z,99435.88
2022-11-21T06:18:57.909Z,99435.78
2022-11-21T06:21:28.696Z,99430.50
2022-11-21T06:23:58.413Z,99432.69
2022-11-21T06:26:28.154Z,99428.34
2022-11-21T06:28:55.768Z,99431.03
2022-11-21T06:31:26.439Z,99425.91
2022-11-21T06:33:57.607Z,99420.91
2022-11-21T06:36:27.113Z,99430.19
2022-11-21T06:38:56.471Z,99428.09
2022-11-21T06:41:30.115Z,99431.38
2022-11-21T06:44:01.999Z,99434.78
2022-11-21T06:46:29.572Z,99428.50
2022-11-21T06:48:56.746Z,99430.31
2022-11-21T06:51:26.015Z,99424.97
2022-11-21T06:53:59.324Z,99426.31
2022-11-21T06:56:31.893Z,99420.00
2022-11-21T06:58:59.380Z,99422.94
2022-11-21T07:01:26.770Z,99425.41
2022-11-21T07:03:54.792Z,99431.59
2022-11-21T07:06:23.041Z,99434.84
2022-11-21T07:11:44.143Z,99434.53
2022-11-21T07:14:14.454Z,99434.09
2022-11-21T07:16:41.700Z,99426.38
2022-11-21T07:19:09.011Z,99425.06
2022-11-21T07:21:36.220Z,99421.63
2022-11-21T07:24:03.945Z,99421.38
2022-11-21T07:26:32.273Z,99415.91
2022-11-21T07:28:59.410Z,99423.63
2022-11-21T07:31:26.883Z,99420.34
2022-11-21T07:33:54.084Z,99423.28
2022-11-21T07:36:21.370Z,99427.84
2022-11-21T07:38:48.595Z,99419.31
2022-11-21T07:41:15.846Z,99425.19
2022-11-21T07:43:43.144Z,99425.41
2022-11-21T07:46:10.681Z,99434.63
2022-11-21T07:48:37.845Z,99435.31
2022-11-21T07:51:05.947Z,99434.44
2022-11-21T07:53:33.301Z,99436.00
2022-11-21T07:56:00.760Z,99436.56
2022-11-21T07:58:28.190Z,99436.25
2022-11-21T08:00:55.463Z,99429.06
2022-11-21T08:03:23.432Z,99419.41
2022-11-21T08:05:50.672Z,99429.41
2022-11-21T08:08:18.012Z,99422.84
2022-11-21T08:10:46.917Z,99430.16
2022-11-21T08:13:15.077Z,99416.97
2022-11-21T08:15:42.492Z,99410.53
2022-11-21T08:18:23.234Z,99402.19
2022-11-21T08:20:50.548Z,99399.81
2022-11-21T08:23:17.683Z,99391.69
2022-11-21T08:25:45.201Z,99390.53
2022-11-21T08:28:12.751Z,99375.81
2022-11-21T08:30:40.676Z,99374.88
2022-11-21T08:33:08.429Z,99384.00
2022-11-21T08:35:39.136Z,99377.66
2022-11-21T08:38:06.760Z,99378.88
2022-11-21T08:40:35.559Z,99360.75
2022-11-21T08:43:07.379Z,99369.50
2022-11-21T08:45:37.409Z,99370.69
2022-11-21T08:48:11.279Z,99354.34
2022-11-21T08:50:38.818Z,99351.72
2022-11-21T08:53:06.040Z,99338.69
2022-11-21T08:55:33.259Z,99337.47
2022-11-21T08:58:00.693Z,99323.50
2022-11-21T09:00:27.956Z,99335.28
2022-11-21T09:02:55.182Z,99332.59
2022-11-21T09:05:22.544Z,99335.75
2022-11-21T09:07:57.611Z,99335.72
2022-11-21T09:10:26.938Z,99330.34
2022-11-21T09:12:54.595Z,99329.09
2022-11-21T09:15:40.484Z,99323.78
2022-11-21T09:18:08.293Z,99327.56
2022-11-21T09:20:43.289Z,99324.31
2022-11-21T09:23:15.861Z,99327.28
2022-11-21T09:25:44.502Z,99320.81
2022-11-21T09:28:13.871Z,99325.91
2022-11-21T09:30:42.940Z,99323.53
2022-11-21T09:33:17.098Z,99322.09
2022-11-21T09:35:44.480Z,99325.66
2022-11-21T09:38:11.640Z,99326.19
2022-11-21T09:40:44.465Z,99332.88
2022-11-21T09:43:42.680Z,99331.25
2022-11-21T09:46:14.077Z,99327.00
2022-11-21T09:49:00.774Z,99324.56
2022-11-21T09:51:31.385Z,99321.94
2022-11-21T09:54:09.890Z,99303.06
2022-11-21T09:56:41.651Z,99305.16
2022-11-21T09:59:38.825Z,99303.47
2022-11-21T10:02:20.716Z,99288.09
2022-11-21T10:04:49.495Z,99291.38
2022-11-21T10:07:26.847Z,99290.28
2022-11-21T10:10:38.439Z,99290.91
2022-11-21T10:13:37.972Z,99282.94
2022-11-21T10:16:41.813Z,99272.69
2022-11-21T10:19:53.767Z,99274.69
2022-11-21T10:23:10.077Z,99272.19
2022-11-21T10:25:39.059Z,99255.03
2022-11-21T10:28:28.012Z,99251.34
2022-11-21T10:30:58.276Z,99251.06
2022-11-21T10:33:33.998Z,99232.19
2022-11-21T10:36:20.747Z,99227.56
2022-11-21T10:38:50.220Z,99223.50
2022-11-21T10:41:24.820Z,99216.56
2022-11-21T10:44:44.859Z,99210.63
2022-11-21T10:47:30.923Z,99210.63
2022-11-21T10:50:08.962Z,99204.25
2022-11-21T10:53:23.310Z,99212.72
2022-11-21T10:56:06.071Z,99211.13
2022-11-21T10:58:56.119Z,99214.31
2022-11-21T11:01:35.016Z,99214.59
2022-11-21T11:04:27.128Z,99197.75
2022-11-21T11:06:56.260Z,99195.44
2022-11-21T11:09:35.834Z,99201.66
2022-11-21T11:12:49.944Z,99189.66
2022-11-21T11:15:23.102Z,99185.97
2022-11-21T11:18:09.166Z,99186.56
2022-11-21T11:20:45.185Z,99189.84
2022-11-21T11:23:22.409Z,99175.50
2022-11-21T11:25:57.741Z,99163.75
2022-11-21T11:28:36.927Z,99153.44
2022-11-21T11:31:04.241Z,99153.28
2022-11-21T11:33:56.769Z,99145.56
2022-11-21T11:36:31.478Z,99130.13
2022-11-21T11:39:00.989Z,99123.31
2022-11-21T11:42:49.328Z,99120.91
2022-11-21T11:46:19.934Z,99105.22
2022-11-21T11:49:17.130Z,99096.91
2022-11-21T11:51:55.063Z,99091.28
2022-11-21T11:54:48.970Z,99083.56
2022-11-21T11:57:17.703Z,99080.16
2022-11-21T11:59:57.772Z,99068.84
2022-11-21T12:02:45.420Z,99073.31
2022-11-21T12:05:25.385Z,99070.06
2022-11-21T12:11:49.083Z,99072.47
2022-11-21T12:15:06.116Z,99067.63
2022-11-21T12:18:00.971Z,99064.44
2022-11-21T12:20:42.866Z,99059.94
2022-11-21T12:23:11.871Z,99057.75
2022-11-21T12:26:03.316Z,99044.53
2022-11-21T12:29:23.282Z,99023.81
2022-11-21T12:32:32.851Z,99021.25
2022-11-21T12:35:45.359Z,99020.38
2022-11-21T12:39:02.605Z,99010.59
2022-11-21T12:42:07.318Z,99012.38
2022-11-21T12:45:21.013Z,99004.75
2022-11-21T12:48:35.069Z,98997.97
2022-11-21T12:52:27.202Z,99003.63
2022-11-21T12:55:37.742Z,99001.41
2022-11-21T12:58:39.909Z,98997.41
2022-11-21T13:01:51.027Z,98993.84
2022-11-21T13:04:28.106Z,98996.47
2022-11-21T13:06:57.674Z,98999.81
2022-11-21T13:09:27.794Z,98990.25
2022-11-21T13:12:07.884Z,98978.22
2022-11-21T13:14:48.751Z,98975.50
2022-11-21T13:17:26.298Z,98968.59
2022-11-21T13:20:14.419Z,98965.97
2022-11-21T13:22:41.536Z,98955.19
2022-11-21T13:25:30.167Z,98956.81
2022-11-21T13:28:17.436Z,98942.53
2022-11-21T13:30:56.649Z,98937.31
2022-11-21T13:33:36.096Z,98930.19
2022-11-21T13:36:10.047Z,98924.25
2022-11-21T13:38:55.156Z,98924.16
2022-11-21T13:41:52.823Z,98913.72
2022-11-21T13:44:32.110Z,98904.13
2022-11-21T13:47:25.956Z,98905.13
2022-11-21T13:50:31.319Z,98893.69
2022-11-21T13:53:33.309Z,98902.34
2022-11-21T13:56:54.153Z,98895.22
2022-11-21T14:00:20.069Z,98900.50
2022-11-21T14:03:00.074Z,98907.53
2022-11-21T14:05:46.125Z,98913.72
2022-11-21T14:08:22.514Z,98905.13
2022-11-21T14:10:53.454Z,98908.50
2022-11-21T14:13:35.775Z,98901.28
2022-11-21T14:16:36.864Z,98896.53
2022-11-21T14:19:05.468Z,98902.28
2022-11-21T14:21:34.010Z,98894.50
2022-11-21T14:24:17.625Z,98889.19
2022-11-21T14:26:49.975Z,98896.00
2022-11-21T14:29:40.441Z,98893.19
2022-11-21T14:32:15.050Z,98894.81
2022-11-21T14:34:42.183Z,98899.00
2022-11-21T14:37:12.958Z,98895.91
2022-11-21T14:39:44.826Z,98896.34
2022-11-21T14:42:16.578Z,98909.75
2022-11-21T14:44:44.393Z,98906.03
2022-11-21T14:47:26.193Z,98906.22
2022-11-21T14:49:58.705Z,98900.38
2022-11-21T14:52:33.068Z,98903.53
2022-11-21T14:57:53.728Z,98904.03
2022-11-21T15:00:57.386Z,98896.69
2022-11-21T15:03:24.262Z,98885.81
2022-11-21T15:06:07.306Z,98890.81
2022-11-21T15:11:38.313Z,98899.16
2022-11-21T15:14:35.708Z,98897.84
2022-11-21T15:17:11.411Z,98878.78
2022-11-21T15:19:38.428Z,98869.81
2022-11-21T15:22:05.615Z,98870.19
2022-11-21T15:24:43.837Z,98865.38
2022-11-21T15:27:32.418Z,98883.72
2022-11-21T15:30:10.281Z,98873.94
2022-11-21T15:33:17.525Z,98862.16
2022-11-21T15:35:54.195Z,98857.31
2022-11-21T15:38:56.998Z,98863.22
2022-11-21T15:41:38.655Z,98865.44
2022-11-21T15:44:05.740Z,98860.13
2022-11-21T15:46:42.350Z,98861.91
2022-11-21T15:49:32.025Z,98858.34
2022-11-21T15:52:06.961Z,98856.97
2022-11-21T15:54:34.815Z,98857.59
2022-11-21T15:57:02.303Z,98861.16
2022-11-21T15:59:29.662Z,98867.16
2022-11-21T16:01:56.973Z,98871.31
2022-11-21T16:04:25.972Z,98870.31
2022-11-21T16:06:55.182Z,98868.34
2022-11-21T16:09:22.508Z,98874.38
2022-11-21T16:11:50.179Z,98876.03
2022-11-21T16:14:20.403Z,98874.25
2022-11-21T16:16:47.857Z,98872.19
2022-11-21T16:19:15.942Z,98860.00
2022-11-21T16:21:43.404Z,98861.72
2022-11-21T16:24:10.661Z,98858.38
2022-11-21T16:26:37.978Z,98848.56
2022-11-21T16:29:05.681Z,98842.47
2022-11-21T16:31:33.745Z,98850.50
2022-11-21T16:34:01.191Z,98852.13
2022-11-21T16:36:30.870Z,98854.66
2022-11-21T16:39:05.242Z,98866.72
2022-11-21T16:41:35.298Z,98875.75
2022-11-21T16:44:02.491Z,98867.88
2022-11-21T16:46:29.745Z,98863.19
2022-11-21T16:49:03.099Z,98848.16
2022-11-21T16:51:31.002Z,98855.53
2022-11-21T16:54:02.890Z,98847.66
2022-11-21T16:56:33.092Z,98839.75
2022-11-21T16:59:00.207Z,98833.81
2022-11-21T17:01:28.438Z,98832.84
2022-11-21T17:03:55.764Z,98834.56
2022-11-21T17:06:28.106Z,98838.13
2022-11-21T17:08:55.550Z,98829.75
2022-11-21T17:11:28.295Z,98827.97
2022-11-21T17:14:00.175Z,98833.25
2022-11-21T17:16:27.727Z,98828.09
2022-11-21T17:18:57.990Z,98832.22
2022-11-21T17:21:26.853Z,98834.63
2022-11-21T17:23:55.042Z,98838.97
2022-11-21T17:26:28.535Z,98850.19
2022-11-21T17:29:00.126Z,98856.22
2022-11-21T17:31:28.071Z,98861.44
2022-11-21T17:34:00.873Z,98853.47
2022-11-21T17:36:30.470Z,98842.03
2022-11-21T17:38:57.792Z,98831.44
2022-11-21T17:41:26.471Z,98824.31
2022-11-21T17:43:58.211Z,98807.75
2022-11-21T17:46:26.541Z,98809.41
2022-11-21T17:48:58.360Z,98789.25
2022-11-21T17:51:34.235Z,98788.47
2022-11-21T17:54:02.122Z,98789.19
2022-11-21T17:56:33.431Z,98795.28
2022-11-21T17:59:01.495Z,98801.34
2022-11-21T18:01:29.404Z,98821.19
2022-11-21T18:04:04.099Z,98835.03
2022-11-21T18:06:39.928Z,98843.03
2022-11-21T18:09:09.662Z,98836.09
2022-11-21T18:11:40.302Z,98831.53
2022-11-21T18:14:10.919Z,98818.31
2022-11-21T18:16:39.609Z,98806.81
2022-11-21T18:19:12.860Z,98809.25
2022-11-21T18:21:40.107Z,98810.16
2022-11-21T18:24:08.469Z,98804.91
2022-11-21T18:26:39.815Z,98807.63
2022-11-21T18:31:57.098Z,98806.81
2022-11-21T18:34:24.345Z,98803.25
2022-11-21T18:36:51.478Z,98807.44
2022-11-21T18:39:18.656Z,98796.00
2022-11-21T18:41:47.172Z,98792.44
2022-11-21T18:44:21.492Z,98790.50
2022-11-21T18:46:49.727Z,98790.50
2022-11-21T18:49:16.845Z,98782.72
2022-11-21T18:51:44.120Z,98784.38
2022-11-21T18:54:11.639Z,98778.28
2022-11-21T18:56:40.033Z,98775.66
2022-11-21T18:59:07.642Z,98767.88
2022-11-21T19:01:37.373Z,98769.56
2022-11-21T19:04:04.849Z,98766.16
2022-11-21T19:06:32.663Z,98759.16
2022-11-21T19:09:00.025Z,98766.84
2022-11-21T19:11:29.781Z,98764.94
2022-11-21T19:13:59.320Z,98766.56
2022-11-21T19:16:30.908Z,98772.59
2022-11-21T19:21:47.010Z,98774.09
2022-11-21T19:24:19.266Z,98779.97
2022-11-21T19:26:50.117Z,98780.81
2022-11-21T19:29:18.532Z,98783.41
2022-11-21T19:31:46.257Z,98785.03
2022-11-21T19:34:15.023Z,98791.88
2022-11-21T19:36:42.837Z,98791.00
2022-11-21T19:39:10.310Z,98789.13
2022-11-21T19:41:37.947Z,98796.94
2022-11-21T19:44:05.287Z,98788.19
2022-11-21T19:46:37.004Z,98797.00
2022-11-21T19:49:06.494Z,98794.53
2022-11-21T19:51:39.264Z,98802.34
2022-11-21T19:54:08.987Z,98800.72
2022-11-21T19:56:37.075Z,98798.94
2022-11-21T19:59:05.490Z,98790.09
2022-11-21T20:01:34.927Z,98786.53
2022-11-21T20:04:05.595Z,98776.97
2022-11-21T20:06:45.800Z,98769.09
2022-11-21T20:09:17.390Z,98767.25
2022-11-21T20:11:48.572Z,98762.84
2022-11-21T20:14:21.399Z,98768.06
2022-11-21T20:16:51.148Z,98772.59
2022-11-21T20:19:22.661Z,98770.00
2022-11-21T20:21:50.423Z,98766.41
2022-11-21T20:24:18.053Z,98764.78
2022-11-21T20:26:45.408Z,98763.91
2022-11-21T20:29:14.070Z,98760.38
2022-11-21T20:31:41.686Z,98755.34
2022-11-21T20:34:13.656Z,98752.66
2022-11-21T20:36:41.834Z,98744.94
2022-11-21T20:39:17.393Z,98749.34
2022-11-21T20:41:47.987Z,98743.16
2022-11-21T20:45:29.921Z,98750.13
2022-11-21T20:47:08.329Z,98763.00
2022-11-21T20:49:35.601Z,98758.69
2022-11-21T20:53:43.898Z,98750.81
2022-11-21T20:54:50.087Z,98739.47
2022-11-21T20:57:17.396Z,98743.72
2022-11-21T20:59:44.589Z,98736.72
2022-11-21T21:02:13.610Z,98729.75
2022-11-21T21:04:40.850Z,98727.09
2022-11-21T21:07:08.187Z,98724.41
2022-11-21T21:09:35.424Z,98723.44
2022-11-21T21:12:02.621Z,98720.63
2022-11-21T21:14:29.892Z,98720.44
2022-11-21T21:16:57.172Z,98718.66
2022-11-21T21:19:24.338Z,98712.56
2022-11-21T21:21:51.487Z,98700.34
2022-11-21T21:24:18.839Z,98705.59
2022-11-21T21:26:49.247Z,98697.59
2022-11-21T21:29:20.781Z,98699.38
2022-11-21T21:31:52.890Z,98704.41
2022-11-21T21:34:22.352Z,98698.34
2022-11-21T21:36:51.086Z,98691.28
2022-11-21T21:39:18.556Z,98690.34
2022-11-21T21:41:47.032Z,98700.75
2022-11-21T21:44:16.107Z,98689.53
2022-11-21T21:46:43.836Z,98690.34
2022-11-21T21:49:11.502Z,98692.94
2022-11-21T21:51:39.847Z,98681.59
2022-11-21T21:54:07.367Z,98685.88
2022-11-21T21:56:34.569Z,98667.75
2022-11-21T21:59:01.969Z,98673.78
2022-11-21T22:01:32.334Z,98664.31
2022-11-21T22:04:03.471Z,98652.19
2022-11-21T22:06:34.253Z,98643.53
2022-11-21T22:09:02.501Z,98649.66
2022-11-21T22:11:33.234Z,98655.75
2022-11-21T22:14:05.720Z,98660.03
2022-11-21T22:16:33.429Z,98667.91
2022-11-21T22:19:00.707Z,98664.38
2022-11-21T22:21:32.739Z,98657.50
2022-11-21T22:26:51.644Z,98635.72
2022-11-21T22:29:18.836Z,98631.41
2022-11-21T22:31:46.030Z,98621.13
2022-11-21T22:34:14.115Z,98613.28
2022-11-21T22:36:41.882Z,98616.78
2022-11-21T22:39:09.343Z,98610.88
2022-11-21T22:41:36.602Z,98611.78
2022-11-21T22:44:03.984Z,98614.50
2022-11-21T22:46:32.344Z,98615.28
2022-11-21T22:48:59.736Z,98611.84
2022-11-21T22:51:29.373Z,98615.41
2022-11-21T22:53:57.402Z,98610.22
2022-11-21T22:56:25.733Z,98605.03
2022-11-21T22:58:53.467Z,98609.38
2022-11-21T23:01:24.637Z,98610.28
2022-11-21T23:03:53.094Z,98595.56
2022-11-21T23:06:24.161Z,98601.84
2022-11-21T23:08:54.140Z,98598.44
2022-11-21T23:11:29.515Z,98598.50
2022-11-21T23:13:57.551Z,98587.09
2022-11-21T23:16:26.049Z,98585.31
2022-11-21T23:18:55.327Z,98580.16
2022-11-21T23:21:23.194Z,98567.94
2022-11-21T23:23:50.399Z,98570.53
2022-11-21T23:26:17.824Z,98562.63
2022-11-21T23:28:45.012Z,98563.44
2022-11-21T23:31:13.435Z,98558.59
2022-11-21T23:33:40.753Z,98551.31
2022-11-21T23:36:08.221Z,98548.72
2022-11-21T23:38:35.410Z,98541.97
2022-11-21T23:41:02.606Z,98531.19
2022-11-21T23:43:29.899Z,98525.72
2022-11-21T23:45:57.282Z,98528.97
2022-11-21T23:48:24.547Z,98523.78
2022-11-21T23:50:52.501Z,98522.88
2022-11-21T23:53:22.500Z,98513.25
2022-11-21T23:55:50.130Z,98511.59
2022-11-21T23:58:17.585Z,98498.75
